sensor_id;sensor_type;location;lat;lon;timestamp;temperature;humidity
65470;DHT22;52067;50.710;14.492;2022-12-18T00:00:44;-3.15;84.20
65470;DHT22;52067;50.710;14.492;2022-12-18T00:03:12;-3.07;83.83
65470;DHT22;52067;50.710;14.492;2022-12-18T00:05:37;-3.30;83.41
65470;DHT22;52067;50.710;14.492;2022-12-18T00:08:10;-3.72;85.37
65470;DHT22;52067;50.710;14.492;2022-12-18T00:10:35;-3.79;85.82
65470;DHT22;52067;50.710;14.492;2022-12-18T00:13:01;-3.76;86.19
65470;DHT22;52067;50.710;14.492;2022-12-18T00:15:26;-3.75;86.58
65470;DHT22;52067;50.710;14.492;2022-12-18T00:17:51;-3.65;85.78
65470;DHT22;52067;50.710;14.492;2022-12-18T00:20:17;-3.65;86.01
65470;DHT22;52067;50.710;14.492;2022-12-18T00:22:46;-3.56;85.72
65470;DHT22;52067;50.710;14.492;2022-12-18T00:25:12;-3.71;84.90
65470;DHT22;52067;50.710;14.492;2022-12-18T00:27:37;-3.90;86.27
65470;DHT22;52067;50.710;14.492;2022-12-18T00:30:03;-3.72;85.39
65470;DHT22;52067;50.710;14.492;2022-12-18T00:32:28;-3.61;84.46
65470;DHT22;52067;50.710;14.492;2022-12-18T00:34:54;-3.55;83.45
65470;DHT22;52067;50.710;14.492;2022-12-18T00:37:19;-3.48;83.01
65470;DHT22;52067;50.710;14.492;2022-12-18T00:39:44;-3.44;83.06
65470;DHT22;52067;50.710;14.492;2022-12-18T00:42:10;-3.37;83.19
65470;DHT22;52067;50.710;14.492;2022-12-18T00:45:01;-3.50;83.16
65470;DHT22;52067;50.710;14.492;2022-12-18T00:47:27;-3.21;82.65
65470;DHT22;52067;50.710;14.492;2022-12-18T00:49:52;-3.24;81.99
65470;DHT22;52067;50.710;14.492;2022-12-18T00:52:17;-3.28;82.19
65470;DHT22;52067;50.710;14.492;2022-12-18T00:54:43;-3.27;82.19
65470;DHT22;52067;50.710;14.492;2022-12-18T00:57:08;-3.20;82.31
65470;DHT22;52067;50.710;14.492;2022-12-18T00:59:33;-3.35;82.47
65470;DHT22;52067;50.710;14.492;2022-12-18T01:01:59;-3.25;82.70
65470;DHT22;52067;50.710;14.492;2022-12-18T01:04:24;-3.27;82.29
65470;DHT22;52067;50.710;14.492;2022-12-18T01:06:49;-3.17;82.21
65470;DHT22;52067;50.710;14.492;2022-12-18T01:09:15;-3.10;81.95
65470;DHT22;52067;50.710;14.492;2022-12-18T01:11:40;-3.14;81.90
65470;DHT22;52067;50.710;14.492;2022-12-18T01:14:06;-3.07;81.87
65470;DHT22;52067;50.710;14.492;2022-12-18T01:16:31;-3.24;82.16
65470;DHT22;52067;50.710;14.492;2022-12-18T01:18:57;-3.11;81.78
65470;DHT22;52067;50.710;14.492;2022-12-18T01:21:23;-3.25;81.97
65470;DHT22;52067;50.710;14.492;2022-12-18T01:23:54;-3.24;82.16
65470;DHT22;52067;50.710;14.492;2022-12-18T01:26:19;-3.17;82.02
65470;DHT22;52067;50.710;14.492;2022-12-18T01:28:45;-3.14;81.76
65470;DHT22;52067;50.710;14.492;2022-12-18T01:31:18;-3.28;82.23
65470;DHT22;52067;50.710;14.492;2022-12-18T01:33:44;-3.31;82.31
65470;DHT22;52067;50.710;14.492;2022-12-18T01:36:18;-3.59;82.99
65470;DHT22;52067;50.710;14.492;2022-12-18T01:38:45;-3.50;83.34
65470;DHT22;52067;50.710;14.492;2022-12-18T01:41:11;-3.55;83.42
65470;DHT22;52067;50.710;14.492;2022-12-18T01:43:54;-3.75;83.81
65470;DHT22;52067;50.710;14.492;2022-12-18T01:46:21;-3.59;83.50
65470;DHT22;52067;50.710;14.492;2022-12-18T01:49:00;-3.55;83.12
65470;DHT22;52067;50.710;14.492;2022-12-18T01:51:27;-3.62;83.31
65470;DHT22;52067;50.710;14.492;2022-12-18T01:53:54;-3.59;83.35
65470;DHT22;52067;50.710;14.492;2022-12-18T01:56:21;-3.50;83.05
65470;DHT22;52067;50.710;14.492;2022-12-18T02:01:12;-3.48;82.99
65470;DHT22;52067;50.710;14.492;2022-12-18T02:03:40;-3.66;83.26
65470;DHT22;52067;50.710;14.492;2022-12-18T02:06:16;-3.65;84.08
65470;DHT22;52067;50.710;14.492;2022-12-18T02:08:50;-3.59;83.71
65470;DHT22;52067;50.710;14.492;2022-12-18T02:11:31;-3.65;83.81
65470;DHT22;52067;50.710;14.492;2022-12-18T02:14:13;-3.64;84.06
65470;DHT22;52067;50.710;14.492;2022-12-18T02:16:52;-3.54;84.19
65470;DHT22;52067;50.710;14.492;2022-12-18T02:27:41;-3.33;83.00
65470;DHT22;52067;50.710;14.492;2022-12-18T02:30:10;-3.35;82.87
65470;DHT22;52067;50.710;14.492;2022-12-18T02:32:48;-3.38;83.22
65470;DHT22;52067;50.710;14.492;2022-12-18T02:35:20;-3.34;83.46
65470;DHT22;52067;50.710;14.492;2022-12-18T02:37:47;-3.24;83.49
65470;DHT22;52067;50.710;14.492;2022-12-18T02:40:14;-3.23;82.92
65470;DHT22;52067;50.710;14.492;2022-12-18T02:42:39;-3.28;83.06
65470;DHT22;52067;50.710;14.492;2022-12-18T02:45:05;-3.27;82.77
65470;DHT22;52067;50.710;14.492;2022-12-18T02:47:34;-3.20;82.51
65470;DHT22;52067;50.710;14.492;2022-12-18T02:56:09;-3.93;83.79
65470;DHT22;52067;50.710;14.492;2022-12-18T02:59:00;-4.10;84.79
65470;DHT22;52067;50.710;14.492;2022-12-18T03:01:38;-4.00;84.81
65470;DHT22;52067;50.710;14.492;2022-12-18T03:07:26;-4.03;84.93
65470;DHT22;52067;50.710;14.492;2022-12-18T03:09:53;-4.03;84.85
65470;DHT22;52067;50.710;14.492;2022-12-18T03:12:27;-4.03;84.94
65470;DHT22;52067;50.710;14.492;2022-12-18T03:17:33;-4.04;85.10
65470;DHT22;52067;50.710;14.492;2022-12-18T03:20:04;-4.09;85.23
65470;DHT22;52067;50.710;14.492;2022-12-18T03:22:32;-3.99;85.55
65470;DHT22;52067;50.710;14.492;2022-12-18T03:25:00;-4.00;84.99
65470;DHT22;52067;50.710;14.492;2022-12-18T03:27:28;-4.00;85.36
65470;DHT22;52067;50.710;14.492;2022-12-18T03:30:04;-4.04;85.43
65470;DHT22;52067;50.710;14.492;2022-12-18T03:32:40;-4.10;85.67
65470;DHT22;52067;50.710;14.492;2022-12-18T03:35:09;-4.17;86.09
65470;DHT22;52067;50.710;14.492;2022-12-18T03:37:35;-4.06;85.91
65470;DHT22;52067;50.710;14.492;2022-12-18T03:40:02;-4.06;85.51
65470;DHT22;52067;50.710;14.492;2022-12-18T03:45:35;-4.23;85.83
65470;DHT22;52067;50.710;14.492;2022-12-18T03:48:11;-4.33;86.51
65470;DHT22;52067;50.710;14.492;2022-12-18T03:50:46;-4.28;86.42
65470;DHT22;52067;50.710;14.492;2022-12-18T03:53:25;-4.25;86.11
65470;DHT22;52067;50.710;14.492;2022-12-18T03:55:55;-4.27;86.15
65470;DHT22;52067;50.710;14.492;2022-12-18T03:58:24;-4.31;86.41
65470;DHT22;52067;50.710;14.492;2022-12-18T04:00:52;-4.34;86.85
65470;DHT22;52067;50.710;14.492;2022-12-18T04:03:20;-4.40;87.31
65470;DHT22;52067;50.710;14.492;2022-12-18T04:05:47;-4.50;88.11
65470;DHT22;52067;50.710;14.492;2022-12-18T04:08:13;-4.52;88.10
65470;DHT22;52067;50.710;14.492;2022-12-18T04:10:39;-4.58;87.89
65470;DHT22;52067;50.710;14.492;2022-12-18T04:13:05;-4.60;87.98
65470;DHT22;52067;50.710;14.492;2022-12-18T04:15:33;-4.62;88.37
65470;DHT22;52067;50.710;14.492;2022-12-18T04:17:59;-4.44;88.56
65470;DHT22;52067;50.710;14.492;2022-12-18T04:20:24;-4.52;87.97
65470;DHT22;52067;50.710;14.492;2022-12-18T04:22:50;-4.57;88.12
65470;DHT22;52067;50.710;14.492;2022-12-18T04:25:15;-4.41;87.69
65470;DHT22;52067;50.710;14.492;2022-12-18T04:27:41;-4.54;87.61
65470;DHT22;52067;50.710;14.492;2022-12-18T04:30:06;-4.60;87.87
65470;DHT22;52067;50.710;14.492;2022-12-18T04:32:33;-4.44;87.49
65470;DHT22;52067;50.710;14.492;2022-12-18T04:34:59;-4.34;87.10
65470;DHT22;52067;50.710;14.492;2022-12-18T04:37:24;-4.40;86.51
65470;DHT22;52067;50.710;14.492;2022-12-18T04:39:50;-4.30;86.68
65470;DHT22;52067;50.710;14.492;2022-12-18T04:42:15;-4.44;86.99
65470;DHT22;52067;50.710;14.492;2022-12-18T04:44:41;-4.47;87.54
65470;DHT22;52067;50.710;14.492;2022-12-18T04:47:06;-4.51;87.93
65470;DHT22;52067;50.710;14.492;2022-12-18T04:49:32;-4.38;87.39
65470;DHT22;52067;50.710;14.492;2022-12-18T04:51:58;-4.02;86.87
65470;DHT22;52067;50.710;14.492;2022-12-18T04:54:23;-3.93;85.87
65470;DHT22;52067;50.710;14.492;2022-12-18T04:56:48;-4.11;85.98
65470;DHT22;52067;50.710;14.492;2022-12-18T04:59:14;-4.11;86.50
65470;DHT22;52067;50.710;14.492;2022-12-18T05:01:39;-4.07;86.40
65470;DHT22;52067;50.710;14.492;2022-12-18T05:04:05;-4.17;86.91
65470;DHT22;52067;50.710;14.492;2022-12-18T05:06:30;-4.14;87.02
65470;DHT22;52067;50.710;14.492;2022-12-18T05:08:56;-4.34;87.03
65470;DHT22;52067;50.710;14.492;2022-12-18T05:11:21;-4.10;87.09
65470;DHT22;52067;50.710;14.492;2022-12-18T05:13:47;-4.09;86.85
65470;DHT22;52067;50.710;14.492;2022-12-18T05:16:13;-3.99;86.15
65470;DHT22;52067;50.710;14.492;2022-12-18T05:18:38;-4.24;86.91
65470;DHT22;52067;50.710;14.492;2022-12-18T05:21:04;-4.25;87.01
65470;DHT22;52067;50.710;14.492;2022-12-18T05:23:30;-4.11;87.00
65470;DHT22;52067;50.710;14.492;2022-12-18T05:25:58;-3.94;86.65
65470;DHT22;52067;50.710;14.492;2022-12-18T05:28:25;-4.00;85.96
65470;DHT22;52067;50.710;14.492;2022-12-18T05:30:52;-3.97;86.05
65470;DHT22;52067;50.710;14.492;2022-12-18T05:33:19;-3.86;86.06
65470;DHT22;52067;50.710;14.492;2022-12-18T05:35:51;-3.99;85.62
65470;DHT22;52067;50.710;14.492;2022-12-18T05:38:17;-4.06;86.19
65470;DHT22;52067;50.710;14.492;2022-12-18T05:40:43;-4.03;86.36
65470;DHT22;52067;50.710;14.492;2022-12-18T05:43:09;-4.00;87.14
65470;DHT22;52067;50.710;14.492;2022-12-18T05:45:37;-4.07;86.50
65470;DHT22;52067;50.710;14.492;2022-12-18T05:48:03;-4.14;86.63
65470;DHT22;52067;50.710;14.492;2022-12-18T05:50:29;-4.27;86.82
65470;DHT22;52067;50.710;14.492;2022-12-18T05:52:54;-4.18;86.54
65470;DHT22;52067;50.710;14.492;2022-12-18T05:55:19;-4.27;86.78
65470;DHT22;52067;50.710;14.492;2022-12-18T05:57:45;-4.24;86.78
65470;DHT22;52067;50.710;14.492;2022-12-18T06:00:11;-4.27;86.79
65470;DHT22;52067;50.710;14.492;2022-12-18T06:02:36;-4.17;86.87
65470;DHT22;52067;50.710;14.492;2022-12-18T06:05:02;-4.27;86.97
65470;DHT22;52067;50.710;14.492;2022-12-18T06:07:27;-4.17;87.16
65470;DHT22;52067;50.710;14.492;2022-12-18T06:09:52;-4.21;86.98
65470;DHT22;52067;50.710;14.492;2022-12-18T06:12:18;-4.13;87.12
65470;DHT22;52067;50.710;14.492;2022-12-18T06:14:43;-4.17;86.91
65470;DHT22;52067;50.710;14.492;2022-12-18T06:17:08;-4.10;86.95
65470;DHT22;52067;50.710;14.492;2022-12-18T06:19:34;-4.04;86.86
65470;DHT22;52067;50.710;14.492;2022-12-18T06:21:59;-4.04;86.68
65470;DHT22;52067;50.710;14.492;2022-12-18T06:24:25;-4.14;86.95
65470;DHT22;52067;50.710;14.492;2022-12-18T06:26:50;-4.30;87.12
65470;DHT22;52067;50.710;14.492;2022-12-18T06:29:16;-4.37;87.31
65470;DHT22;52067;50.710;14.492;2022-12-18T06:31:41;-4.41;87.64
65470;DHT22;52067;50.710;14.492;2022-12-18T06:34:06;-4.40;87.77
65470;DHT22;52067;50.710;14.492;2022-12-18T06:36:32;-4.50;87.84
65470;DHT22;52067;50.710;14.492;2022-12-18T06:38:57;-4.41;88.04
65470;DHT22;52067;50.710;14.492;2022-12-18T06:41:23;-4.27;87.89
65470;DHT22;52067;50.710;14.492;2022-12-18T06:43:49;-4.35;87.49
65470;DHT22;52067;50.710;14.492;2022-12-18T06:46:14;-4.30;87.37
65470;DHT22;52067;50.710;14.492;2022-12-18T06:48:40;-4.35;86.91
65470;DHT22;52067;50.710;14.492;2022-12-18T06:51:05;-4.28;87.10
65470;DHT22;52067;50.710;14.492;2022-12-18T06:53:32;-4.37;87.38
65470;DHT22;52067;50.710;14.492;2022-12-18T06:56:05;-4.35;87.34
65470;DHT22;52067;50.710;14.492;2022-12-18T06:58:31;-4.30;87.08
65470;DHT22;52067;50.710;14.492;2022-12-18T07:01:01;-4.27;87.13
65470;DHT22;52067;50.710;14.492;2022-12-18T07:03:27;-4.44;87.38
65470;DHT22;52067;50.710;14.492;2022-12-18T07:05:52;-4.40;87.29
65470;DHT22;52067;50.710;14.492;2022-12-18T07:08:18;-4.54;87.75
65470;DHT22;52067;50.710;14.492;2022-12-18T07:10:44;-4.47;87.69
65470;DHT22;52067;50.710;14.492;2022-12-18T07:13:09;-4.43;87.54
65470;DHT22;52067;50.710;14.492;2022-12-18T07:15:35;-4.44;87.32
65470;DHT22;52067;50.710;14.492;2022-12-18T07:18:00;-4.38;87.45
65470;DHT22;52067;50.710;14.492;2022-12-18T07:20:26;-4.48;87.37
65470;DHT22;52067;50.710;14.492;2022-12-18T07:22:51;-4.41;87.51
65470;DHT22;52067;50.710;14.492;2022-12-18T07:25:16;-4.55;87.84
65470;DHT22;52067;50.710;14.492;2022-12-18T07:27:42;-4.54;87.66
65470;DHT22;52067;50.710;14.492;2022-12-18T07:30:08;-4.45;87.66
65470;DHT22;52067;50.710;14.492;2022-12-18T07:32:33;-4.35;87.52
65470;DHT22;52067;50.710;14.492;2022-12-18T07:34:59;-4.38;87.51
65470;DHT22;52067;50.710;14.492;2022-12-18T07:37:25;-4.52;86.92
65470;DHT22;52067;50.710;14.492;2022-12-18T07:39:50;-4.62;87.62
65470;DHT22;52067;50.710;14.492;2022-12-18T07:42:15;-4.55;87.96
65470;DHT22;52067;50.710;14.492;2022-12-18T07:44:56;-4.47;87.87
65470;DHT22;52067;50.710;14.492;2022-12-18T07:47:22;-4.43;87.56
65470;DHT22;52067;50.710;14.492;2022-12-18T07:49:47;-4.54;87.62
65470;DHT22;52067;50.710;14.492;2022-12-18T07:52:13;-4.65;87.94
65470;DHT22;52067;50.710;14.492;2022-12-18T07:54:38;-4.47;87.86
65470;DHT22;52067;50.710;14.492;2022-12-18T07:57:04;-4.43;87.66
65470;DHT22;52067;50.710;14.492;2022-12-18T07:59:29;-4.34;87.31
65470;DHT22;52067;50.710;14.492;2022-12-18T08:01:54;-4.48;87.93
65470;DHT22;52067;50.710;14.492;2022-12-18T08:04:20;-4.52;87.83
65470;DHT22;52067;50.710;14.492;2022-12-18T08:06:45;-4.68;87.73
65470;DHT22;52067;50.710;14.492;2022-12-18T08:09:11;-4.65;87.89
65470;DHT22;52067;50.710;14.492;2022-12-18T08:11:36;-4.55;87.97
65470;DHT22;52067;50.710;14.492;2022-12-18T08:14:02;-4.48;87.57
65470;DHT22;52067;50.710;14.492;2022-12-18T08:16:27;-4.44;87.57
65470;DHT22;52067;50.710;14.492;2022-12-18T08:18:54;-4.50;87.64
65470;DHT22;52067;50.710;14.492;2022-12-18T08:21:25;-4.58;87.57
65470;DHT22;52067;50.710;14.492;2022-12-18T08:23:52;-4.40;87.40
65470;DHT22;52067;50.710;14.492;2022-12-18T08:26:18;-4.41;87.30
65470;DHT22;52067;50.710;14.492;2022-12-18T08:28:44;-4.40;87.14
65470;DHT22;52067;50.710;14.492;2022-12-18T08:31:10;-4.37;86.91
65470;DHT22;52067;50.710;14.492;2022-12-18T08:33:36;-4.45;86.98
65470;DHT22;52067;50.710;14.492;2022-12-18T08:36:03;-4.27;86.69
65470;DHT22;52067;50.710;14.492;2022-12-18T08:38:29;-4.30;86.76
65470;DHT22;52067;50.710;14.492;2022-12-18T08:41:12;-4.48;87.51
65470;DHT22;52067;50.710;14.492;2022-12-18T08:43:38;-4.41;86.97
65470;DHT22;52067;50.710;14.492;2022-12-18T08:46:24;-4.38;86.34
65470;DHT22;52067;50.710;14.492;2022-12-18T08:48:53;-4.48;86.97
65470;DHT22;52067;50.710;14.492;2022-12-18T08:51:19;-4.50;87.38
65470;DHT22;52067;50.710;14.492;2022-12-18T08:53:45;-4.30;86.64
65470;DHT22;52067;50.710;14.492;2022-12-18T08:56:11;-4.06;85.87
65470;DHT22;52067;50.710;14.492;2022-12-18T08:58:37;-4.21;85.65
65470;DHT22;52067;50.710;14.492;2022-12-18T09:01:04;-4.18;85.99
65470;DHT22;52067;50.710;14.492;2022-12-18T09:03:29;-4.17;85.83
65470;DHT22;52067;50.710;14.492;2022-12-18T09:05:55;-4.23;85.91
65470;DHT22;52067;50.710;14.492;2022-12-18T09:08:20;-4.09;86.57
65470;DHT22;52067;50.710;14.492;2022-12-18T09:10:47;-4.10;85.76
65470;DHT22;52067;50.710;14.492;2022-12-18T09:13:13;-4.24;86.64
65470;DHT22;52067;50.710;14.492;2022-12-18T09:15:50;-4.16;86.65
65470;DHT22;52067;50.710;14.492;2022-12-18T09:18:17;-4.02;85.40
65470;DHT22;52067;50.710;14.492;2022-12-18T09:20:43;-4.10;85.75
65470;DHT22;52067;50.710;14.492;2022-12-18T09:23:09;-3.90;85.68
65470;DHT22;52067;50.710;14.492;2022-12-18T09:25:35;-4.02;85.02
65470;DHT22;52067;50.710;14.492;2022-12-18T09:28:12;-4.17;85.48
65470;DHT22;52067;50.710;14.492;2022-12-18T09:30:43;-4.11;85.45
65470;DHT22;52067;50.710;14.492;2022-12-18T09:33:09;-4.10;85.39
65470;DHT22;52067;50.710;14.492;2022-12-18T09:35:39;-4.10;85.33
65470;DHT22;52067;50.710;14.492;2022-12-18T09:38:05;-3.97;85.55
65470;DHT22;52067;50.710;14.492;2022-12-18T09:40:36;-3.99;85.11
65470;DHT22;52067;50.710;14.492;2022-12-18T09:43:06;-4.06;85.42
65470;DHT22;52067;50.710;14.492;2022-12-18T09:45:44;-3.89;85.94
65470;DHT22;52067;50.710;14.492;2022-12-18T09:48:27;-4.04;85.72
65470;DHT22;52067;50.710;14.492;2022-12-18T09:50:59;-3.81;84.85
65470;DHT22;52067;50.710;14.492;2022-12-18T09:53:28;-3.92;85.44
65470;DHT22;52067;50.710;14.492;2022-12-18T09:55:56;-3.96;85.79
65470;DHT22;52067;50.710;14.492;2022-12-18T09:58:34;-3.96;86.06
65470;DHT22;52067;50.710;14.492;2022-12-18T10:01:01;-3.93;85.78
65470;DHT22;52067;50.710;14.492;2022-12-18T10:03:26;-4.17;85.66
65470;DHT22;52067;50.710;14.492;2022-12-18T10:06:12;-4.09;86.31
65470;DHT22;52067;50.710;14.492;2022-12-18T10:09:01;-3.93;85.51
65470;DHT22;52067;50.710;14.492;2022-12-18T10:12:09;-3.68;84.90
65470;DHT22;52067;50.710;14.492;2022-12-18T10:20:27;-3.92;84.57
65470;DHT22;52067;50.710;14.492;2022-12-18T10:26:05;-3.69;84.03
65470;DHT22;52067;50.710;14.492;2022-12-18T10:28:34;-3.94;84.33
65470;DHT22;52067;50.710;14.492;2022-12-18T10:31:17;-3.92;85.42
65470;DHT22;52067;50.710;14.492;2022-12-18T10:33:43;-4.02;84.81
65470;DHT22;52067;50.710;14.492;2022-12-18T10:36:09;-3.92;84.76
65470;DHT22;52067;50.710;14.492;2022-12-18T10:38:35;-4.00;84.71
65470;DHT22;52067;50.710;14.492;2022-12-18T10:41:03;-3.85;85.02
65470;DHT22;52067;50.710;14.492;2022-12-18T10:43:32;-4.04;85.48
65470;DHT22;52067;50.710;14.492;2022-12-18T10:46:02;-3.99;84.60
65470;DHT22;52067;50.710;14.492;2022-12-18T10:48:31;-3.86;84.65
65470;DHT22;52067;50.710;14.492;2022-12-18T10:51:03;-3.78;84.24
65470;DHT22;52067;50.710;14.492;2022-12-18T10:53:30;-3.94;84.92
65470;DHT22;52067;50.710;14.492;2022-12-18T10:55:58;-3.93;84.39
65470;DHT22;52067;50.710;14.492;2022-12-18T11:01:12;-4.14;85.34
65470;DHT22;52067;50.710;14.492;2022-12-18T11:03:41;-4.18;85.64
65470;DHT22;52067;50.710;14.492;2022-12-18T11:06:15;-4.02;85.69
65470;DHT22;52067;50.710;14.492;2022-12-18T11:08:43;-4.03;85.10
65470;DHT22;52067;50.710;14.492;2022-12-18T11:11:20;-4.02;84.49
65470;DHT22;52067;50.710;14.492;2022-12-18T11:16:25;-4.30;86.32
65470;DHT22;52067;50.710;14.492;2022-12-18T11:18:51;-4.07;85.46
65470;DHT22;52067;50.710;14.492;2022-12-18T11:21:16;-4.03;85.40
65470;DHT22;52067;50.710;14.492;2022-12-18T11:23:52;-4.43;85.71
65470;DHT22;52067;50.710;14.492;2022-12-18T11:26:19;-4.24;85.23
65470;DHT22;52067;50.710;14.492;2022-12-18T11:28:52;-4.16;85.65
65470;DHT22;52067;50.710;14.492;2022-12-18T11:31:32;-4.10;84.45
65470;DHT22;52067;50.710;14.492;2022-12-18T11:36:29;-4.28;85.30
65470;DHT22;52067;50.710;14.492;2022-12-18T11:39:00;-4.28;85.38
65470;DHT22;52067;50.710;14.492;2022-12-18T11:41:43;-4.24;85.37
65470;DHT22;52067;50.710;14.492;2022-12-18T11:47:38;-4.40;86.61
65470;DHT22;52067;50.710;14.492;2022-12-18T11:52:42;-4.24;85.16
65470;DHT22;52067;50.710;14.492;2022-12-18T11:55:14;-4.18;86.66
65470;DHT22;52067;50.710;14.492;2022-12-18T12:00:18;-4.06;85.00
65470;DHT22;52067;50.710;14.492;2022-12-18T12:03:18;-3.92;85.09
65470;DHT22;52067;50.710;14.492;2022-12-18T12:05:48;-3.87;85.11
65470;DHT22;52067;50.710;14.492;2022-12-18T12:35:44;-4.16;85.12
65470;DHT22;52067;50.710;14.492;2022-12-18T12:38:25;-3.97;85.27
65470;DHT22;52067;50.710;14.492;2022-12-18T12:40:58;-3.76;84.48
65470;DHT22;52067;50.710;14.492;2022-12-18T12:46:07;-3.82;83.60
65470;DHT22;52067;50.710;14.492;2022-12-18T12:48:46;-3.96;83.95
65470;DHT22;52067;50.710;14.492;2022-12-18T12:53:43;-3.87;84.30
65470;DHT22;52067;50.710;14.492;2022-12-18T12:56:11;-3.90;84.15
65470;DHT22;52067;50.710;14.492;2022-12-18T13:07:17;-4.37;85.79
65470;DHT22;52067;50.710;14.492;2022-12-18T13:15:26;-3.93;85.37
65470;DHT22;52067;50.710;14.492;2022-12-18T13:20:39;-3.92;84.80
65470;DHT22;52067;50.710;14.492;2022-12-18T13:25:59;-4.02;85.02
65470;DHT22;52067;50.710;14.492;2022-12-18T13:31:13;-3.87;84.78
65470;DHT22;52067;50.710;14.492;2022-12-18T13:33:44;-3.79;84.25
65470;DHT22;52067;50.710;14.492;2022-12-18T13:36:15;-3.89;84.75
65470;DHT22;52067;50.710;14.492;2022-12-18T13:38:41;-3.94;85.33
65470;DHT22;52067;50.710;14.492;2022-12-18T13:41:25;-3.94;84.93
65470;DHT22;52067;50.710;14.492;2022-12-18T13:43:55;-3.94;84.09
65470;DHT22;52067;50.710;14.492;2022-12-18T13:46:41;-4.14;84.65
65470;DHT22;52067;50.710;14.492;2022-12-18T13:51:44;-4.43;85.95
65470;DHT22;52067;50.710;14.492;2022-12-18T13:54:24;-4.34;85.57
65470;DHT22;52067;50.710;14.492;2022-12-18T13:56:50;-4.33;85.15
65470;DHT22;52067;50.710;14.492;2022-12-18T13:59:21;-4.50;86.16
65470;DHT22;52067;50.710;14.492;2022-12-18T14:01:59;-4.35;85.94
65470;DHT22;52067;50.710;14.492;2022-12-18T14:06:52;-4.31;85.69
65470;DHT22;52067;50.710;14.492;2022-12-18T14:09:24;-4.43;86.38
65470;DHT22;52067;50.710;14.492;2022-12-18T14:11:50;-4.41;85.99
65470;DHT22;52067;50.710;14.492;2022-12-18T14:14:17;-4.34;85.69
65470;DHT22;52067;50.710;14.492;2022-12-18T14:16:43;-4.34;86.53
65470;DHT22;52067;50.710;14.492;2022-12-18T14:19:16;-4.34;85.94
65470;DHT22;52067;50.710;14.492;2022-12-18T14:21:47;-4.31;85.91
65470;DHT22;52067;50.710;14.492;2022-12-18T14:26:41;-4.40;86.03
65470;DHT22;52067;50.710;14.492;2022-12-18T14:29:28;-4.41;86.04
65470;DHT22;52067;50.710;14.492;2022-12-18T14:32:13;-4.44;86.28
65470;DHT22;52067;50.710;14.492;2022-12-18T14:34:41;-4.54;86.57
65470;DHT22;52067;50.710;14.492;2022-12-18T14:37:10;-4.52;86.44
65470;DHT22;52067;50.710;14.492;2022-12-18T14:39:36;-4.28;86.25
65470;DHT22;52067;50.710;14.492;2022-12-18T14:42:01;-4.31;86.01
65470;DHT22;52067;50.710;14.492;2022-12-18T14:44:27;-4.38;86.54
65470;DHT22;52067;50.710;14.492;2022-12-18T14:46:52;-4.40;86.65
65470;DHT22;52067;50.710;14.492;2022-12-18T14:49:44;-4.43;86.60
65470;DHT22;52067;50.710;14.492;2022-12-18T14:52:26;-4.44;86.69
65470;DHT22;52067;50.710;14.492;2022-12-18T14:54:52;-4.55;86.82
65470;DHT22;52067;50.710;14.492;2022-12-18T14:59:42;-4.48;86.85
65470;DHT22;52067;50.710;14.492;2022-12-18T15:02:19;-4.69;86.99
65470;DHT22;52067;50.710;14.492;2022-12-18T15:04:47;-4.81;87.87
65470;DHT22;52067;50.710;14.492;2022-12-18T15:07:21;-4.95;88.07
65470;DHT22;52067;50.710;14.492;2022-12-18T15:10:15;-5.04;88.19
65470;DHT22;52067;50.710;14.492;2022-12-18T15:12:47;-5.03;88.46
65470;DHT22;52067;50.710;14.492;2022-12-18T15:15:46;-5.06;88.49
65470;DHT22;52067;50.710;14.492;2022-12-18T15:18:14;-5.12;88.63
65470;DHT22;52067;50.710;14.492;2022-12-18T15:21:09;-5.17;88.50
65470;DHT22;52067;50.710;14.492;2022-12-18T15:23:48;-5.10;88.44
65470;DHT22;52067;50.710;14.492;2022-12-18T15:26:17;-5.07;88.66
65470;DHT22;52067;50.710;14.492;2022-12-18T15:33:42;-5.33;89.08
65470;DHT22;52067;50.710;14.492;2022-12-18T15:36:13;-5.24;89.28
65470;DHT22;52067;50.710;14.492;2022-12-18T15:38:40;-5.19;88.92
65470;DHT22;52067;50.710;14.492;2022-12-18T15:41:05;-5.27;89.30
65470;DHT22;52067;50.710;14.492;2022-12-18T15:43:31;-5.27;89.38
65470;DHT22;52067;50.710;14.492;2022-12-18T15:46:06;-5.19;89.18
65470;DHT22;52067;50.710;14.492;2022-12-18T15:48:36;-5.24;89.04
65470;DHT22;52067;50.710;14.492;2022-12-18T15:51:05;-5.22;89.17
65470;DHT22;52067;50.710;14.492;2022-12-18T15:53:34;-5.24;89.24
65470;DHT22;52067;50.710;14.492;2022-12-18T15:55:59;-5.27;89.27
65470;DHT22;52067;50.710;14.492;2022-12-18T15:58:43;-5.30;89.37
65470;DHT22;52067;50.710;14.492;2022-12-18T16:01:10;-5.27;89.35
65470;DHT22;52067;50.710;14.492;2022-12-18T16:03:36;-5.24;89.37
65470;DHT22;52067;50.710;14.492;2022-12-18T16:06:02;-5.37;89.61
65470;DHT22;52067;50.710;14.492;2022-12-18T16:08:29;-5.28;89.43
65470;DHT22;52067;50.710;14.492;2022-12-18T16:10:55;-5.38;89.52
65470;DHT22;52067;50.710;14.492;2022-12-18T16:13:21;-5.35;89.68
65470;DHT22;52067;50.710;14.492;2022-12-18T16:15:46;-5.40;89.66
65470;DHT22;52067;50.710;14.492;2022-12-18T16:18:12;-5.43;89.67
65470;DHT22;52067;50.710;14.492;2022-12-18T16:20:37;-5.47;90.20
65470;DHT22;52067;50.710;14.492;2022-12-18T16:23:03;-5.50;90.58
65470;DHT22;52067;50.710;14.492;2022-12-18T16:25:28;-5.40;90.38
65470;DHT22;52067;50.710;14.492;2022-12-18T16:27:55;-5.52;90.11
65470;DHT22;52067;50.710;14.492;2022-12-18T16:30:23;-5.62;90.41
65470;DHT22;52067;50.710;14.492;2022-12-18T16:32:49;-5.55;90.66
65470;DHT22;52067;50.710;14.492;2022-12-18T16:35:16;-5.38;90.61
65470;DHT22;52067;50.710;14.492;2022-12-18T16:37:41;-5.37;90.41
65470;DHT22;52067;50.710;14.492;2022-12-18T16:40:09;-5.44;90.45
65470;DHT22;52067;50.710;14.492;2022-12-18T16:42:36;-5.38;90.47
65470;DHT22;52067;50.710;14.492;2022-12-18T16:45:02;-5.46;90.45
65470;DHT22;52067;50.710;14.492;2022-12-18T16:47:28;-5.26;90.33
65470;DHT22;52067;50.710;14.492;2022-12-18T16:49:53;-5.43;90.27
65470;DHT22;52067;50.710;14.492;2022-12-18T16:52:19;-5.43;90.39
65470;DHT22;52067;50.710;14.492;2022-12-18T16:54:45;-5.44;90.57
65470;DHT22;52067;50.710;14.492;2022-12-18T16:57:13;-5.46;90.53
65470;DHT22;52067;50.710;14.492;2022-12-18T16:59:39;-5.55;90.67
65470;DHT22;52067;50.710;14.492;2022-12-18T17:02:04;-5.50;90.94
65470;DHT22;52067;50.710;14.492;2022-12-18T17:04:30;-5.43;90.97
65470;DHT22;52067;50.710;14.492;2022-12-18T17:06:56;-5.48;90.60
65470;DHT22;52067;50.710;14.492;2022-12-18T17:09:21;-5.55;90.47
65470;DHT22;52067;50.710;14.492;2022-12-18T17:11:50;-5.83;90.57
65470;DHT22;52067;50.710;14.492;2022-12-18T17:14:18;-5.67;90.94
65470;DHT22;52067;50.710;14.492;2022-12-18T17:16:44;-5.64;90.89
65470;DHT22;52067;50.710;14.492;2022-12-18T17:19:10;-5.58;90.63
65470;DHT22;52067;50.710;14.492;2022-12-18T17:21:36;-5.57;90.45
65470;DHT22;52067;50.710;14.492;2022-12-18T17:24:02;-5.61;90.45
65470;DHT22;52067;50.710;14.492;2022-12-18T17:26:28;-5.75;90.55